createdAt,value
2022-11-16T00:03:47.538Z,94.64
2022-11-16T00:07:51.584Z,94.93
2022-11-16T00:11:56.121Z,95.10
2022-11-16T00:15:58.783Z,95.11
2022-11-16T00:20:01.997Z,94.97
2022-11-16T00:24:07.127Z,94.85
2022-11-16T00:28:10.756Z,94.95
2022-11-16T00:32:13.457Z,94.98
2022-11-16T00:36:16.449Z,95.28
2022-11-16T00:40:20.519Z,94.98
2022-11-16T00:44:23.186Z,95.13
2022-11-16T00:48:25.910Z,95.07
2022-11-16T00:52:28.679Z,95.06
2022-11-16T00:56:32.730Z,95.02
2022-11-16T01:00:35.611Z,95.12
2022-11-16T01:04:38.326Z,95.00
2022-11-16T01:08:42.263Z,95.14
2022-11-16T01:12:47.217Z,95.26
2022-11-16T01:16:50.632Z,95.34
2022-11-16T01:20:54.322Z,95.63
2022-11-16T01:24:56.988Z,95.61
2022-11-16T01:29:01.098Z,95.46
2022-11-16T01:33:03.793Z,95.37
2022-11-16T01:37:06.475Z,95.32
2022-11-16T01:41:09.464Z,95.49
2022-11-16T01:45:34.103Z,95.63
2022-11-16T01:49:40.748Z,95.78
2022-11-16T01:53:43.701Z,95.38
2022-11-16T01:57:48.257Z,95.90
2022-11-16T02:01:52.258Z,95.90
2022-11-16T02:06:18.650Z,95.78
2022-11-16T02:10:37.117Z,95.39
2022-11-16T02:15:04.680Z,95.53
2022-11-16T02:19:31.292Z,95.57
2022-11-16T02:24:12.122Z,95.71
2022-11-16T02:28:26.777Z,95.84
2022-11-16T02:32:35.742Z,95.76
2022-11-16T02:36:43.133Z,95.59
2022-11-16T02:40:49.448Z,95.64
2022-11-16T02:44:55.596Z,96.14
2022-11-16T02:49:04.157Z,95.94
2022-11-16T02:53:06.828Z,95.61
2022-11-16T02:57:33.380Z,96.03
2022-11-16T03:01:41.061Z,95.79
2022-11-16T03:05:49.222Z,95.70
2022-11-16T03:09:53.943Z,95.79
2022-11-16T03:14:00.338Z,95.82
2022-11-16T03:18:04.349Z,96.10
2022-11-16T03:22:13.640Z,95.98
2022-11-16T03:26:20.204Z,96.15
2022-11-16T03:30:24.673Z,96.03
2022-11-16T03:34:34.213Z,95.83
2022-11-16T03:38:40.976Z,95.75
2022-11-16T03:42:45.701Z,95.81
2022-11-16T03:46:49.317Z,95.85
2022-11-16T03:50:52.812Z,96.33
2022-11-16T03:54:56.798Z,96.25
2022-11-16T03:58:59.441Z,96.25
2022-11-16T04:03:02.090Z,95.90
2022-11-16T04:07:22.390Z,96.34
2022-11-16T04:11:43.793Z,96.27
2022-11-16T04:16:04.268Z,96.47
2022-11-16T04:20:24.800Z,96.05
2022-11-16T04:24:31.995Z,96.12
2022-11-16T04:28:37.133Z,96.51
2022-11-16T04:32:57.667Z,96.46
2022-11-16T04:37:17.971Z,96.42
2022-11-16T04:41:38.188Z,96.30
2022-11-16T04:45:59.573Z,96.49
2022-11-16T04:50:02.269Z,96.48
2022-11-16T04:54:04.947Z,96.19
2022-11-16T04:58:07.689Z,96.33
2022-11-16T05:02:11.793Z,96.38
2022-11-16T05:06:14.470Z,96.51
2022-11-16T05:10:17.420Z,96.66
2022-11-16T05:14:20.086Z,96.57
2022-11-16T05:18:24.107Z,96.88
2022-11-16T05:22:26.965Z,96.39
2022-11-16T05:26:29.601Z,95.91
2022-11-16T05:30:32.374Z,95.08
2022-11-16T05:34:36.590Z,95.25
2022-11-16T05:38:39.228Z,95.53
2022-11-16T05:42:41.894Z,95.39
2022-11-16T05:46:45.139Z,95.55
2022-11-16T05:50:49.181Z,95.29
2022-11-16T05:54:51.927Z,95.64
2022-11-16T05:58:54.664Z,95.73
2022-11-16T06:02:57.467Z,95.43
2022-11-16T06:07:01.643Z,95.35
2022-11-16T06:11:05.681Z,95.39
2022-11-16T06:15:08.807Z,94.62
2022-11-16T06:19:11.662Z,94.84
2022-11-16T06:23:16.006Z,95.03
2022-11-16T06:27:18.688Z,94.50
2022-11-16T06:31:21.440Z,94.40
2022-11-16T06:35:24.283Z,94.47
2022-11-16T06:39:28.403Z,94.80
2022-11-16T06:43:31.104Z,94.49
2022-11-16T06:47:34.644Z,94.68
2022-11-16T06:51:37.601Z,94.78
2022-11-16T06:55:42.234Z,94.64
2022-11-16T06:59:45.676Z,95.09
2022-11-16T07:03:48.407Z,94.96
2022-11-16T07:07:55.188Z,94.88
2022-11-16T07:11:59.568Z,94.78
2022-11-16T07:16:03.587Z,95.21
2022-11-16T07:20:07.288Z,95.20
2022-11-16T07:24:09.956Z,94.42
2022-11-16T07:28:14.010Z,94.68
2022-11-16T07:32:16.782Z,94.43
2022-11-16T07:36:20.017Z,94.54
2022-11-16T07:40:22.696Z,94.83
2022-11-16T07:44:27.685Z,94.45
2022-11-16T07:48:30.537Z,94.40
2022-11-16T07:52:33.480Z,93.84
2022-11-16T07:56:36.142Z,93.36
2022-11-16T08:00:40.213Z,93.21
2022-11-16T08:04:43.641Z,93.76
2022-11-16T08:08:46.423Z,93.65
2022-11-16T08:12:49.081Z,93.85
2022-11-16T08:16:53.109Z,93.87
2022-11-16T08:20:55.748Z,93.32
2022-11-16T08:24:58.441Z,93.54
2022-11-16T08:29:01.291Z,93.72
2022-11-16T08:33:05.320Z,93.47
2022-11-16T08:37:09.414Z,93.62
2022-11-16T08:41:12.157Z,93.78
2022-11-16T08:45:15.497Z,93.46
2022-11-16T08:49:20.424Z,92.88
2022-11-16T08:53:23.123Z,93.07
2022-11-16T08:57:25.877Z,92.83
2022-11-16T09:01:30.221Z,92.73
2022-11-16T09:05:34.440Z,92.76
2022-11-16T09:09:37.305Z,93.00
2022-11-16T09:13:44.484Z,93.04
2022-11-16T09:17:47.233Z,93.07
2022-11-16T09:21:51.310Z,92.96
2022-11-16T09:25:55.621Z,93.07
2022-11-16T09:30:07.513Z,93.18
2022-11-16T09:34:10.373Z,93.51
2022-11-16T09:38:20.689Z,93.88
2022-11-16T09:42:39.395Z,94.01
2022-11-16T09:46:47.217Z,93.98
2022-11-16T09:50:56.957Z,93.78
2022-11-16T09:55:04.212Z,93.96
2022-11-16T09:59:18.295Z,93.83
2022-11-16T10:03:21.188Z,93.54
2022-11-16T10:07:31.875Z,93.23
2022-11-16T10:11:52.385Z,93.04
2022-11-16T10:16:12.333Z,92.20
2022-11-16T10:20:38.535Z,91.96
2022-11-16T10:24:54.149Z,91.61
2022-11-16T10:29:26.078Z,91.82
2022-11-16T10:33:37.763Z,91.55
2022-11-16T10:37:46.080Z,91.19
2022-11-16T10:41:50.893Z,90.88
2022-11-16T10:46:00.050Z,92.17
2022-11-16T10:50:05.732Z,92.15
2022-11-16T10:54:13.536Z,92.49
2022-11-16T10:58:16.541Z,92.55
2022-11-16T11:02:31.382Z,92.66
2022-11-16T11:06:34.554Z,91.90
2022-11-16T11:10:38.986Z,91.66
2022-11-16T11:14:41.691Z,92.11
2022-11-16T11:18:47.065Z,91.62
2022-11-16T11:22:55.011Z,92.13
2022-11-16T11:27:00.535Z,92.12
2022-11-16T11:31:07.051Z,91.92
2022-11-16T11:35:23.007Z,92.06
2022-11-16T11:39:43.424Z,91.71
2022-11-16T11:44:03.247Z,91.27
2022-11-16T11:48:19.850Z,91.58
2022-11-16T11:52:30.857Z,91.03
2022-11-16T11:56:34.329Z,91.02
2022-11-16T12:00:44.889Z,91.37
2022-11-16T12:05:22.245Z,91.10
2022-11-16T12:09:37.537Z,91.46
2022-11-16T12:13:59.818Z,91.53
2022-11-16T12:18:16.556Z,91.76
2022-11-16T12:22:35.552Z,91.96
2022-11-16T12:26:52.343Z,92.22
2022-11-16T12:31:06.148Z,91.62
2022-11-16T12:35:23.650Z,91.25
2022-11-16T12:39:34.966Z,90.92
2022-11-16T12:43:47.198Z,90.89
2022-11-16T12:48:13.478Z,90.74
2022-11-16T12:52:37.388Z,90.32
2022-11-16T12:56:50.162Z,90.84
2022-11-16T13:01:02.652Z,90.32
2022-11-16T13:05:17.387Z,89.85
2022-11-16T13:09:24.732Z,89.34
2022-11-16T13:13:38.346Z,89.50
2022-11-16T13:17:42.673Z,88.98
2022-11-16T13:21:56.450Z,90.35
2022-11-16T13:26:13.085Z,90.20
2022-11-16T13:30:20.236Z,90.99
2022-11-16T13:34:27.070Z,90.70
2022-11-16T13:38:52.411Z,89.63
2022-11-16T13:43:23.082Z,90.19
2022-11-16T13:47:30.420Z,89.56
2022-11-16T13:51:35.449Z,89.89
2022-11-16T13:55:46.683Z,89.34
2022-11-16T13:59:53.211Z,89.99
2022-11-16T14:04:42.647Z,89.83
2022-11-16T14:08:49.112Z,89.56
2022-11-16T14:13:00.035Z,89.56
2022-11-16T14:17:02.721Z,89.49
2022-11-16T14:21:17.940Z,89.43
2022-11-16T14:25:34.533Z,89.08
2022-11-16T14:29:56.046Z,89.20
2022-11-16T14:34:02.869Z,89.02
2022-11-16T14:38:11.149Z,89.51
2022-11-16T14:42:21.582Z,90.10
2022-11-16T14:46:28.094Z,90.44
2022-11-16T14:50:35.394Z,90.24
2022-11-16T14:54:48.559Z,90.43
2022-11-16T14:58:53.930Z,90.72
2022-11-16T15:03:02.590Z,90.67
2022-11-16T15:07:06.655Z,90.90
2022-11-16T15:11:15.838Z,90.98
2022-11-16T15:15:23.547Z,91.45
2022-11-16T15:19:29.776Z,91.59
2022-11-16T15:23:32.896Z,92.38
2022-11-16T15:27:39.033Z,93.50
2022-11-16T15:31:44.251Z,92.55
2022-11-16T15:35:47.265Z,94.43
2022-11-16T15:39:50.265Z,94.09
2022-11-16T15:44:13.467Z,94.79
2022-11-16T15:48:21.999Z,94.90
2022-11-16T15:52:44.584Z,94.55
2022-11-16T15:56:47.369Z,93.21
2022-11-16T16:00:50.217Z,93.21
2022-11-16T16:04:54.298Z,92.92
2022-11-16T16:09:07.241Z,92.44
2022-11-16T16:13:32.579Z,92.29
2022-11-16T16:17:35.494Z,92.69
2022-11-16T16:21:45.201Z,92.21
2022-11-16T16:25:50.772Z,91.80
2022-11-16T16:29:55.223Z,94.15
2022-11-16T16:33:59.511Z,93.29
2022-11-16T16:38:03.521Z,92.26
2022-11-16T16:42:09.448Z,92.34
2022-11-16T16:46:12.876Z,91.85
2022-11-16T16:50:15.670Z,92.22
2022-11-16T16:54:19.848Z,92.42
2022-11-16T16:58:22.598Z,92.49
2022-11-16T17:02:26.892Z,92.19
2022-11-16T17:06:30.641Z,91.71
2022-11-16T17:10:34.701Z,91.57
2022-11-16T17:14:37.554Z,92.03
2022-11-16T17:18:40.623Z,92.00
2022-11-16T17:22:43.412Z,91.71
2022-11-16T17:26:48.844Z,91.85
2022-11-16T17:30:51.539Z,91.93
2022-11-16T17:34:54.490Z,91.83
2022-11-16T17:38:58.028Z,91.89
2022-11-16T17:43:02.126Z,91.78
2022-11-16T17:47:04.841Z,91.97
2022-11-16T17:51:07.855Z,92.38
2022-11-16T17:55:10.810Z,92.33
2022-11-16T17:59:14.843Z,92.53
2022-11-16T18:03:17.696Z,93.40
2022-11-16T18:07:20.472Z,93.77
2022-11-16T18:11:25.099Z,94.08
2022-11-16T18:15:29.646Z,93.75
2022-11-16T18:19:32.403Z,94.25
2022-11-16T18:23:36.008Z,93.78
2022-11-16T18:27:39.022Z,93.67
2022-11-16T18:31:43.174Z,93.99
2022-11-16T18:35:45.917Z,94.04
2022-11-16T18:39:48.570Z,93.94
2022-11-16T18:43:53.458Z,93.60
2022-11-16T18:47:57.536Z,93.97
2022-11-16T18:52:00.553Z,94.28
2022-11-16T18:56:03.303Z,94.17
2022-11-16T19:00:07.266Z,94.38
2022-11-16T19:04:11.852Z,94.72
2022-11-16T19:08:15.561Z,94.78
2022-11-16T19:12:18.284Z,95.33
2022-11-16T19:16:20.930Z,95.12
2022-11-16T19:20:25.037Z,95.17
2022-11-16T19:24:27.814Z,95.48
2022-11-16T19:28:30.479Z,95.20
2022-11-16T19:32:33.159Z,95.20
2022-11-16T19:36:38.383Z,95.33
2022-11-16T19:40:41.073Z,95.20
2022-11-16T19:44:43.770Z,95.09
2022-11-16T19:48:47.235Z,95.19
2022-11-16T19:52:51.267Z,95.50
2022-11-16T19:56:55.336Z,95.67
2022-11-16T20:01:02.600Z,96.03
2022-11-16T20:05:06.040Z,96.12
2022-11-16T20:09:12.241Z,95.83
2022-11-16T20:13:14.947Z,95.56
2022-11-16T20:17:17.646Z,95.91
2022-11-16T20:21:23.806Z,95.65
2022-11-16T20:25:29.106Z,95.54
2022-11-16T20:29:32.472Z,95.67
2022-11-16T20:33:35.665Z,95.81
2022-11-16T20:37:38.728Z,95.65
2022-11-16T20:41:43.867Z,95.43
2022-11-16T20:45:46.577Z,95.40
2022-11-16T20:49:49.247Z,95.76
2022-11-16T20:53:52.041Z,95.45
2022-11-16T20:57:56.045Z,95.45
2022-11-16T21:01:58.786Z,95.73
2022-11-16T21:06:01.859Z,95.55
2022-11-16T21:10:19.881Z,95.78
2022-11-16T21:14:24.692Z,95.31
2022-11-16T21:18:30.665Z,95.53
2022-11-16T21:22:33.567Z,95.50
2022-11-16T21:26:37.133Z,95.40
2022-11-16T21:30:41.163Z,95.61
2022-11-16T21:34:44.017Z,95.72
2022-11-16T21:38:47.403Z,95.69
2022-11-16T21:42:52.286Z,96.24
2022-11-16T21:46:56.352Z,96.13
2022-11-16T21:51:02.509Z,95.81
2022-11-16T21:55:05.994Z,96.00
2022-11-16T21:59:08.652Z,95.99
2022-11-16T22:03:12.709Z,96.20
2022-11-16T22:07:32.902Z,96.42
2022-11-16T22:11:35.706Z,96.35
2022-11-16T22:15:38.442Z,96.25
2022-11-16T22:19:42.473Z,96.38
2022-11-16T22:23:45.254Z,96.22
2022-11-16T22:28:13.896Z,96.19
2022-11-16T22:32:12.232Z,96.03
2022-11-16T22:36:16.249Z,96.50
2022-11-16T22:40:19.021Z,96.58
2022-11-16T22:44:21.776Z,96.61
2022-11-16T22:48:24.410Z,96.26
2022-11-16T22:52:28.448Z,96.23
2022-11-16T22:56:33.074Z,96.59
2022-11-16T23:00:40.553Z,96.43
2022-11-16T23:04:44.565Z,96.24
2022-11-16T23:08:49.074Z,96.71
2022-11-16T23:13:09.341Z,96.74
2022-11-16T23:17:14.624Z,96.46
2022-11-16T23:21:34.780Z,96.49
2022-11-16T23:25:56.078Z,96.74
2022-11-16T23:29:59.447Z,96.41
2022-11-16T23:34:02.129Z,96.55
2022-11-16T23:38:06.450Z,96.29
2022-11-16T23:42:28.634Z,96.38
2022-11-16T23:46:33.984Z,96.63
2022-11-16T23:50:36.846Z,96.26
2022-11-16T23:54:39.560Z,96.30
2022-11-16T23:58:43.645Z,96.53
